Aérodrome :
LOGIN :

S'inscrire | Disclaimer

   EN    FR    IT 

 










Légende :    VFR   VFR Marginal   IFR   IFR Intensif   IFR Très Intensif
Visi : 
Plafond : 
>= 8 km
>= 3000ft
5 à 8 km
1000 à 3000 ft
1500m à 5 km
500 à 1000 ft
800 à 1500m
200 à 500 ft
< 800m
< 200 ft
Symboles :   Orages  Brouillard  Fortes neiges  Fortes précipitations  Vent > 20 kt
SIGMETs :   Divers  Orages  Givrage  Turbulence  Onde Orograph.  Cendres Volcan.







- Altitude de l'aérodrome : 1768 ft


LEHC - Huesca Pirineos

DERNIER METAR :
  • 190100Z AUTO 24007KT 9999 NCD 17/13 Q1017

METARs EXPIRÉS :
  • 190030Z AUTO 22009KT 9999 NCD 18/12 Q1017
  • 190000Z AUTO 22009KT 9999 NCD 18/12 Q1017
  • 182330Z AUTO 21008KT 9999 NCD 18/13 Q1017
  • 182300Z AUTO 19006KT 160V220 9999 NCD 19/13 Q1017
  • 182230Z AUTO 20007KT 9999 NCD 20/13 Q1017

TAF COR TAF LEHC
Valide du 18 à 15h jusqu'au 19 à 15h UTC


181414Z 1815/1915 23014KT 9999 FEW040 TX34/1915Z TN17/1905Z
BECMG 1820/1822 VRB03KT
BECMG 1906/1908 14008KT
Pas de NOTAMs connus pour ce terrain.



MET'MAP, la Météo Aéronautique d'un coup d'oeil ! - Copyright ORBIFLY Décembre 2007 - Disclaimer

ORBIFLY MET'MAP TEAM :

Programmation & Développement : Alexandra Zaïnal
Conception & Développement : Baudouin d'Aumeries
Co-Programmation & Développement : Marc-Olivier Méhu
Soutien technique & logistique : Manuel Goepfert

Contact : metmap@orbifly.com




SOURCES & CREDITS :

   NOAA